createdAt,value
2019-05-25T00:00:42.800Z,0
2019-05-25T00:01:42.760Z,0
2019-05-25T00:02:42.444Z,0
2019-05-25T00:03:42.752Z,0
2019-05-25T00:04:42.817Z,0
2019-05-25T00:05:42.732Z,0
2019-05-25T00:06:42.789Z,0
2019-05-25T00:07:42.237Z,0
2019-05-25T00:08:42.836Z,0
2019-05-25T00:09:48.301Z,0
2019-05-25T00:10:42.471Z,0
2019-05-25T00:11:42.712Z,0
2019-05-25T00:12:42.452Z,0
2019-05-25T00:13:42.702Z,0
2019-05-25T00:14:42.682Z,0
2019-05-25T00:15:42.684Z,0
2019-05-25T00:16:42.666Z,0
2019-05-25T00:17:43.106Z,0
2019-05-25T00:18:42.691Z,0
2019-05-25T00:19:42.643Z,0
2019-05-25T00:20:42.678Z,0
2019-05-25T00:21:42.650Z,0
2019-05-25T00:22:42.386Z,0
2019-05-25T00:23:42.627Z,0
2019-05-25T00:24:48.518Z,0
2019-05-25T00:25:42.366Z,0
2019-05-25T00:28:43.881Z,0
2019-05-25T00:29:42.589Z,0
2019-05-25T00:30:42.576Z,0
2019-05-25T00:31:47.667Z,0
2019-05-25T00:33:42.325Z,0
2019-05-25T00:34:42.545Z,0
2019-05-25T00:35:42.564Z,0
2019-05-25T00:36:43.552Z,0
2019-05-25T00:37:42.624Z,0
2019-05-25T00:38:42.521Z,0
2019-05-25T00:39:42.514Z,0
2019-05-25T00:40:44.812Z,0
2019-05-25T00:41:42.512Z,0
2019-05-25T00:42:42.250Z,0
2019-05-25T00:43:42.309Z,0
2019-05-25T00:44:42.490Z,0
2019-05-25T00:45:42.477Z,0
2019-05-25T00:46:42.474Z,0
2019-05-25T00:47:45.139Z,0
2019-05-25T05:26:54.522Z,830
2019-05-25T05:27:39.965Z,855
2019-05-25T05:28:39.975Z,880
2019-05-25T05:29:39.755Z,885
2019-05-25T05:30:39.975Z,870
2019-05-25T05:31:39.963Z,950
2019-05-25T05:32:39.963Z,910
2019-05-25T05:33:39.969Z,945
2019-05-25T05:34:39.985Z,960
2019-05-25T05:35:43.595Z,960
2019-05-25T05:36:39.973Z,955
2019-05-25T05:37:40.015Z,960
2019-05-25T05:38:39.978Z,1000
2019-05-25T05:39:39.999Z,1030
2019-05-25T05:40:40.019Z,1040
2019-05-25T05:41:40.691Z,1050
2019-05-25T05:42:39.995Z,1055
2019-05-25T05:43:40.015Z,1060
2019-05-25T05:44:39.814Z,1065
2019-05-25T05:45:40.021Z,1070
2019-05-25T05:46:40.052Z,1080
2019-05-25T05:47:39.788Z,1090
2019-05-25T05:48:40.201Z,1115
2019-05-25T05:49:40.063Z,1135
2019-05-25T05:50:40.056Z,1125
2019-05-25T05:51:40.062Z,1145
2019-05-25T05:52:40.068Z,1020
2019-05-25T05:53:40.081Z,1190
2019-05-25T05:54:39.855Z,1210
2019-05-25T05:55:40.089Z,1240
2019-05-25T05:56:40.108Z,1240
2019-05-25T05:57:39.861Z,1250
2019-05-25T05:58:40.134Z,1250
2019-05-25T05:59:40.134Z,1255
2019-05-25T06:00:40.175Z,1255
2019-05-25T06:01:40.198Z,1275
2019-05-25T06:02:39.915Z,1280
2019-05-25T06:03:40.160Z,1280
2019-05-25T06:04:40.189Z,1255
2019-05-25T06:05:40.196Z,1295
2019-05-25T06:06:40.186Z,1320
2019-05-25T06:07:40.205Z,1330
2019-05-25T06:08:40.222Z,1315
2019-05-25T06:09:40.219Z,1305
2019-05-25T06:10:40.001Z,1330
2019-05-25T06:11:40.291Z,1355
2019-05-25T06:12:40.009Z,1380
2019-05-25T06:13:40.300Z,1415
2019-05-25T06:14:40.290Z,1460
2019-05-25T06:15:40.286Z,1455
2019-05-25T06:16:40.320Z,1475
2019-05-25T06:17:40.419Z,1480
2019-05-25T06:18:40.338Z,1405
2019-05-25T06:19:42.586Z,1485
2019-05-25T06:20:40.340Z,1460
2019-05-25T06:21:40.347Z,1490
2019-05-25T06:22:40.394Z,410
2019-05-25T06:23:53.110Z,800
2019-05-25T06:24:40.387Z,1610
2019-05-25T06:25:40.419Z,1710
2019-05-25T06:26:40.408Z,1645
2019-05-25T06:27:40.191Z,1660
2019-05-25T06:28:40.436Z,1680
2019-05-25T06:29:40.441Z,1630
2019-05-25T06:30:40.494Z,1665
2019-05-25T06:31:40.467Z,1640
2019-05-25T06:32:40.730Z,1715
2019-05-25T06:33:40.483Z,1755
2019-05-25T06:34:40.503Z,1765
2019-05-25T06:35:40.514Z,1760
2019-05-25T06:36:40.518Z,1770
2019-05-25T06:37:40.539Z,1825
2019-05-25T06:38:40.552Z,1890
2019-05-25T06:39:40.664Z,1885
2019-05-25T06:40:40.577Z,1885
2019-05-25T06:41:40.589Z,1925
2019-05-25T06:42:40.354Z,1500
2019-05-25T06:43:40.603Z,1900
2019-05-25T06:44:40.689Z,1825
2019-05-25T06:45:40.626Z,2020
2019-05-25T06:46:44.333Z,2040
2019-05-25T06:47:44.476Z,1815
2019-05-25T06:51:41.722Z,490
2019-05-25T06:52:40.239Z,510
2019-05-25T06:53:40.743Z,2065
2019-05-25T06:54:40.750Z,1260
2019-05-25T06:55:40.756Z,2105
2019-05-25T06:56:40.767Z,2100
2019-05-25T06:57:51.406Z,2070
2019-05-25T06:58:40.784Z,565
2019-05-25T06:59:40.812Z,1990
2019-05-25T07:00:40.570Z,1990
2019-05-25T07:01:45.918Z,2055
2019-05-25T07:02:40.598Z,2085
2019-05-25T07:03:40.658Z,2170
2019-05-25T07:04:40.621Z,2240
2019-05-25T07:05:40.875Z,2305
2019-05-25T07:06:40.879Z,2355
2019-05-25T07:07:40.694Z,2405
2019-05-25T07:08:43.595Z,2295
2019-05-25T07:09:40.928Z,1265
2019-05-25T07:10:40.937Z,2535
2019-05-25T07:11:40.954Z,1760
2019-05-25T07:12:40.725Z,795
2019-05-25T07:13:40.971Z,760
2019-05-25T07:14:40.990Z,1410
2019-05-25T07:15:40.993Z,1455
2019-05-25T07:16:41.001Z,740
2019-05-25T07:17:40.523Z,725
2019-05-25T07:18:44.561Z,685
2019-05-25T07:19:41.046Z,595
2019-05-25T07:20:41.063Z,2300
2019-05-25T07:21:41.069Z,2320
2019-05-25T07:22:40.832Z,2445
2019-05-25T07:23:41.084Z,900
2019-05-25T07:24:41.145Z,810
2019-05-25T07:25:40.876Z,2450
2019-05-25T07:26:41.125Z,2375
2019-05-25T07:27:41.138Z,1000
2019-05-25T07:28:41.139Z,940
2019-05-25T07:29:40.917Z,920
2019-05-25T07:30:41.167Z,1005
2019-05-25T07:31:41.171Z,720
2019-05-25T07:32:40.463Z,670
2019-05-25T07:33:41.204Z,640
2019-05-25T07:34:40.958Z,600
2019-05-25T07:35:40.972Z,580
2019-05-25T07:36:41.226Z,520
2019-05-25T07:37:40.757Z,535
2019-05-25T07:38:41.247Z,625
2019-05-25T07:39:41.325Z,695
2019-05-25T07:40:41.276Z,2230
2019-05-25T07:41:41.295Z,755
2019-05-25T07:42:40.540Z,1870
2019-05-25T07:43:41.300Z,1070
2019-05-25T07:44:41.356Z,1275
2019-05-25T07:45:41.308Z,835
2019-05-25T07:46:41.307Z,1920
2019-05-25T07:47:40.896Z,725
2019-05-25T07:48:41.353Z,670
2019-05-25T07:49:41.325Z,720
2019-05-25T07:50:41.338Z,780
2019-05-25T07:51:41.404Z,685
2019-05-25T07:52:40.857Z,650
2019-05-25T07:53:41.357Z,700
2019-05-25T07:54:41.363Z,675
2019-05-25T07:55:41.369Z,815
2019-05-25T07:56:41.377Z,645
2019-05-25T07:57:41.145Z,605
2019-05-25T07:58:41.381Z,645
2019-05-25T07:59:41.428Z,735
2019-05-25T08:00:41.400Z,2780
2019-05-25T08:01:41.435Z,710
2019-05-25T08:02:40.922Z,1000
2019-05-25T08:03:44.875Z,580
2019-05-25T08:04:41.437Z,625
2019-05-25T08:05:41.434Z,775
2019-05-25T08:06:41.440Z,1125
2019-05-25T08:07:40.951Z,970
2019-05-25T08:08:41.448Z,1805
2019-05-25T08:09:41.455Z,895
2019-05-25T08:10:41.472Z,855
2019-05-25T08:11:41.222Z,850
2019-05-25T08:12:41.218Z,815
2019-05-25T08:13:41.487Z,820
2019-05-25T08:14:44.902Z,835
2019-05-25T08:15:41.478Z,735
2019-05-25T08:16:41.490Z,695
2019-05-25T08:17:41.013Z,695
2019-05-25T08:18:41.512Z,710
2019-05-25T08:19:41.529Z,625
2019-05-25T08:20:41.506Z,610
2019-05-25T08:21:41.506Z,685
2019-05-25T08:22:41.313Z,630
2019-05-25T08:23:41.524Z,700
2019-05-25T08:24:41.531Z,755
2019-05-25T08:25:41.527Z,925
2019-05-25T08:26:41.555Z,2280
2019-05-25T08:27:41.537Z,835
2019-05-25T08:28:42.564Z,860
2019-05-25T08:29:41.543Z,1180
2019-05-25T08:30:41.678Z,1255
2019-05-25T08:31:41.551Z,1000
2019-05-25T08:32:41.072Z,875
2019-05-25T08:33:41.563Z,785
2019-05-25T08:34:41.578Z,725
2019-05-25T08:35:41.592Z,730
2019-05-25T08:36:41.652Z,755
2019-05-25T08:37:41.340Z,750
2019-05-25T08:38:41.581Z,820
2019-05-25T08:39:41.583Z,810
2019-05-25T08:40:41.594Z,830
2019-05-25T08:41:45.265Z,555
2019-05-25T08:42:41.352Z,540
2019-05-25T08:43:41.606Z,610
2019-05-25T08:44:41.365Z,675
2019-05-25T08:45:41.639Z,735
2019-05-25T08:46:41.618Z,695
2019-05-25T08:47:41.622Z,755
2019-05-25T08:48:41.643Z,770
2019-05-25T08:49:41.644Z,655
2019-05-25T08:50:48.069Z,625
2019-05-25T08:51:41.670Z,610
2019-05-25T08:52:41.669Z,600
2019-05-25T08:53:53.828Z,565
2019-05-25T08:54:41.668Z,560
2019-05-25T08:55:41.664Z,545
2019-05-25T08:56:41.658Z,510
2019-05-25T08:57:41.668Z,485
2019-05-25T08:59:00.240Z,455
2019-05-25T08:59:41.658Z,455
2019-05-25T09:00:41.678Z,490
2019-05-25T09:01:41.695Z,545
2019-05-25T09:02:42.699Z,605
2019-05-25T09:03:41.486Z,580
2019-05-25T09:04:44.263Z,655
2019-05-25T09:05:41.450Z,660
2019-05-25T09:06:41.742Z,705
2019-05-25T09:07:48.928Z,655
2019-05-25T09:08:41.689Z,620
2019-05-25T09:09:41.691Z,585
2019-05-25T09:10:41.723Z,540
2019-05-25T09:11:41.685Z,505
2019-05-25T09:12:41.683Z,490
2019-05-25T09:13:41.696Z,500
2019-05-25T09:14:41.483Z,495
2019-05-25T09:15:41.698Z,520
2019-05-25T09:16:41.689Z,520
2019-05-25T09:17:41.712Z,475
2019-05-25T09:18:41.693Z,450
2019-05-25T09:19:41.697Z,455
2019-05-25T09:20:41.737Z,460
2019-05-25T09:21:41.704Z,435
2019-05-25T09:22:41.697Z,415
2019-05-25T09:23:41.722Z,385
2019-05-25T09:24:41.708Z,395
2019-05-25T09:25:41.477Z,455
2019-05-25T09:26:41.717Z,475
2019-05-25T09:27:41.712Z,500
2019-05-25T09:28:41.703Z,445
2019-05-25T09:29:41.460Z,420
2019-05-25T09:30:41.707Z,440
2019-05-25T09:31:41.705Z,480
2019-05-25T09:32:40.998Z,490
2019-05-25T09:33:41.708Z,485
2019-05-25T09:34:41.522Z,480
2019-05-25T09:35:41.704Z,485
2019-05-25T09:36:41.705Z,505
2019-05-25T09:37:41.710Z,525
2019-05-25T09:38:45.590Z,550
2019-05-25T09:39:41.719Z,560
2019-05-25T09:40:41.715Z,550
2019-05-25T09:41:41.530Z,530
2019-05-25T09:42:42.614Z,535
2019-05-25T09:43:43.502Z,545
2019-05-25T09:44:41.717Z,525
2019-05-25T09:45:41.705Z,520
2019-05-25T09:46:41.719Z,500
2019-05-25T09:47:41.473Z,480
2019-05-25T09:48:45.255Z,470
2019-05-25T09:49:41.706Z,480
2019-05-25T09:50:41.710Z,475
2019-05-25T09:51:41.705Z,490
2019-05-25T09:52:41.472Z,485
2019-05-25T09:53:41.750Z,500
2019-05-25T09:54:41.705Z,480
2019-05-25T09:55:41.481Z,435
2019-05-25T09:56:41.705Z,405
2019-05-25T09:57:44.197Z,375
2019-05-25T09:58:41.705Z,375
2019-05-25T09:59:41.710Z,370
2019-05-25T10:00:45.155Z,360
2019-05-25T10:01:41.738Z,365
2019-05-25T10:02:42.278Z,420
2019-05-25T10:03:41.775Z,480
2019-05-25T10:04:41.724Z,485
2019-05-25T10:05:41.725Z,500
2019-05-25T10:06:41.705Z,520
2019-05-25T10:07:41.279Z,605
2019-05-25T10:08:41.702Z,675
2019-05-25T10:09:44.844Z,760
2019-05-25T10:10:41.719Z,845
2019-05-25T10:11:41.504Z,860
2019-05-25T10:12:41.705Z,885
2019-05-25T10:13:41.705Z,905
2019-05-25T10:14:41.703Z,870
2019-05-25T10:15:41.705Z,815
2019-05-25T10:16:41.716Z,770
2019-05-25T10:17:41.804Z,685
2019-05-25T10:18:41.708Z,660
2019-05-25T10:19:41.578Z,685
2019-05-25T10:20:41.705Z,735
2019-05-25T10:21:41.721Z,750
2019-05-25T10:22:41.808Z,695
2019-05-25T10:23:41.736Z,680
2019-05-25T10:24:41.720Z,695
2019-05-25T10:25:41.734Z,700
2019-05-25T10:26:41.713Z,710
2019-05-25T10:27:43.805Z,705
2019-05-25T10:28:41.718Z,660
2019-05-25T10:29:46.688Z,645
2019-05-25T10:30:41.710Z,615
2019-05-25T10:31:41.507Z,575
2019-05-25T10:32:41.504Z,530
2019-05-25T10:33:42.278Z,520
2019-05-25T10:34:41.730Z,575
2019-05-25T10:35:41.722Z,665
2019-05-25T10:36:41.483Z,785
2019-05-25T10:37:41.495Z,815
2019-05-25T10:38:41.732Z,740
2019-05-25T10:39:41.737Z,705
2019-05-25T10:40:41.733Z,760
2019-05-25T10:41:41.736Z,850
2019-05-25T10:42:41.731Z,905
2019-05-25T10:43:41.727Z,925
2019-05-25T10:44:41.767Z,890
2019-05-25T10:45:41.757Z,885
2019-05-25T10:46:41.843Z,910
2019-05-25T10:47:41.741Z,920
2019-05-25T10:48:41.761Z,905
2019-05-25T10:49:41.783Z,875
2019-05-25T10:50:41.503Z,875
2019-05-25T10:51:41.807Z,890
2019-05-25T10:52:41.514Z,865
2019-05-25T10:53:41.757Z,800
2019-05-25T10:54:41.768Z,795
2019-05-25T10:55:41.513Z,800
2019-05-25T10:56:41.783Z,775
2019-05-25T10:57:41.815Z,750
2019-05-25T10:58:41.774Z,755
2019-05-25T10:59:57.245Z,765
2019-05-25T11:00:41.542Z,745
2019-05-25T11:01:41.835Z,735
2019-05-25T11:02:41.781Z,745
2019-05-25T11:03:41.786Z,745
2019-05-25T11:04:41.787Z,760
2019-05-25T11:05:41.806Z,735
2019-05-25T11:06:44.345Z,700
2019-05-25T11:07:41.800Z,695
2019-05-25T11:08:41.886Z,680
2019-05-25T11:09:41.806Z,675
2019-05-25T11:10:41.800Z,715
2019-05-25T11:11:41.799Z,770
2019-05-25T11:12:41.589Z,795
2019-05-25T11:13:41.812Z,805
2019-05-25T11:14:41.834Z,770
2019-05-25T11:15:41.807Z,725
2019-05-25T11:16:41.588Z,700
2019-05-25T11:17:41.875Z,735
2019-05-25T11:18:41.850Z,790
2019-05-25T11:19:41.825Z,815
2019-05-25T11:20:41.837Z,815
2019-05-25T11:21:41.854Z,815
2019-05-25T11:22:41.833Z,805
2019-05-25T11:23:41.608Z,765
2019-05-25T11:24:41.837Z,725
2019-05-25T11:25:41.843Z,700
2019-05-25T11:26:41.890Z,685
2019-05-25T11:27:41.602Z,680
2019-05-25T11:28:41.861Z,675
2019-05-25T11:29:41.895Z,675
2019-05-25T11:30:41.858Z,655
2019-05-25T11:31:42.137Z,655
2019-05-25T11:32:41.862Z,650
2019-05-25T11:33:43.860Z,610
2019-05-25T11:34:41.862Z,620
2019-05-25T11:35:41.905Z,630
2019-05-25T11:36:41.872Z,635
2019-05-25T11:37:41.390Z,635
2019-05-25T11:38:41.886Z,610
2019-05-25T11:39:41.635Z,565
2019-05-25T11:40:41.892Z,570
2019-05-25T11:41:41.897Z,610
2019-05-25T11:42:41.894Z,665
2019-05-25T11:43:41.899Z,695
2019-05-25T11:44:41.896Z,695
2019-05-25T11:45:45.214Z,690
2019-05-25T11:46:41.671Z,680
2019-05-25T11:47:42.046Z,705
2019-05-25T11:48:41.653Z,695
2019-05-25T11:49:41.897Z,680
2019-05-25T11:50:41.666Z,705
2019-05-25T11:51:41.902Z,730
2019-05-25T11:52:41.894Z,735
2019-05-25T11:53:41.904Z,690
2019-05-25T11:54:41.914Z,625
2019-05-25T11:55:41.930Z,620
2019-05-25T11:56:41.913Z,625
2019-05-25T11:57:41.675Z,630
2019-05-25T11:58:56.377Z,620
2019-05-25T11:59:41.677Z,625
2019-05-25T12:00:41.923Z,640
2019-05-25T12:01:41.683Z,665
2019-05-25T12:02:41.946Z,695
2019-05-25T12:03:41.932Z,655
2019-05-25T12:04:41.727Z,640
2019-05-25T12:05:41.936Z,705
2019-05-25T12:06:41.928Z,720
2019-05-25T12:07:44.565Z,730
2019-05-25T12:08:41.940Z,730
2019-05-25T12:09:42.007Z,705
2019-05-25T12:10:41.953Z,655
2019-05-25T12:11:41.960Z,605
2019-05-25T12:12:41.961Z,585
2019-05-25T12:13:41.705Z,600
2019-05-25T12:14:42.028Z,580
2019-05-25T12:15:41.965Z,595
2019-05-25T12:16:41.960Z,625
2019-05-25T12:17:41.722Z,615
2019-05-25T12:18:42.075Z,605
2019-05-25T12:19:41.968Z,590
2019-05-25T12:20:41.992Z,585
2019-05-25T12:21:41.978Z,590
2019-05-25T12:22:41.982Z,560
2019-05-25T12:23:41.980Z,535
2019-05-25T12:24:41.981Z,515
2019-05-25T12:25:41.985Z,485
2019-05-25T12:26:41.986Z,455
2019-05-25T12:27:42.063Z,435
2019-05-25T12:28:41.990Z,435
2019-05-25T12:29:41.994Z,450
2019-05-25T12:30:50.579Z,490
2019-05-25T12:31:41.994Z,525
2019-05-25T12:32:41.994Z,570
2019-05-25T12:33:41.771Z,590
2019-05-25T12:34:42.002Z,585
2019-05-25T12:35:45.003Z,575
2019-05-25T12:36:41.762Z,560
2019-05-25T12:37:42.023Z,540
2019-05-25T12:38:42.003Z,525
2019-05-25T12:39:42.006Z,530
2019-05-25T12:40:57.433Z,550
2019-05-25T12:41:41.757Z,555
2019-05-25T12:42:45.100Z,555
2019-05-25T12:43:42.002Z,575
2019-05-25T12:44:44.337Z,590
2019-05-25T12:45:44.548Z,605
2019-05-25T12:46:42.024Z,610
2019-05-25T12:47:42.020Z,610
2019-05-25T12:48:42.019Z,620
2019-05-25T12:49:59.517Z,685
2019-05-25T12:50:42.010Z,695
2019-05-25T12:51:42.031Z,665
2019-05-25T12:52:42.017Z,610
2019-05-25T12:53:42.020Z,580
2019-05-25T12:54:42.016Z,565
2019-05-25T12:55:42.021Z,565
2019-05-25T12:56:42.032Z,590
2019-05-25T12:57:42.033Z,620
2019-05-25T12:58:42.022Z,630
2019-05-25T12:59:42.026Z,640
2019-05-25T13:00:57.510Z,650
2019-05-25T13:01:42.027Z,665
2019-05-25T13:02:42.035Z,665
2019-05-25T13:03:42.024Z,650
2019-05-25T13:04:42.046Z,610
2019-05-25T13:05:43.993Z,560
2019-05-25T13:06:42.038Z,550
2019-05-25T13:07:41.550Z,550
2019-05-25T13:08:43.956Z,540
2019-05-25T13:09:41.793Z,530
2019-05-25T13:10:42.032Z,525
2019-05-25T13:12:42.048Z,515
2019-05-25T13:13:42.037Z,515
2019-05-25T13:14:42.045Z,525
2019-05-25T13:15:42.057Z,540
2019-05-25T13:16:42.040Z,520
2019-05-25T13:17:42.044Z,515
2019-05-25T13:18:42.044Z,535
2019-05-25T13:19:42.045Z,545
2019-05-25T13:20:42.043Z,530
2019-05-25T13:21:42.043Z,520
2019-05-25T13:22:42.050Z,520
2019-05-25T13:23:41.800Z,525
2019-05-25T13:24:42.100Z,515
2019-05-25T13:25:42.046Z,525
2019-05-25T13:26:42.073Z,540
2019-05-25T13:27:42.049Z,535
2019-05-25T13:28:42.054Z,520
2019-05-25T13:29:42.062Z,500
2019-05-25T13:30:42.053Z,490
2019-05-25T13:31:42.058Z,505
2019-05-25T13:32:41.569Z,530
2019-05-25T13:33:42.056Z,540
2019-05-25T13:34:41.821Z,545
2019-05-25T13:35:42.053Z,535
2019-05-25T13:36:42.086Z,515
2019-05-25T13:37:41.805Z,515
2019-05-25T13:38:42.055Z,525
2019-05-25T13:39:42.071Z,515
2019-05-25T13:40:42.058Z,495
2019-05-25T13:41:42.055Z,480
2019-05-25T13:42:41.816Z,510
2019-05-25T13:43:42.055Z,525
2019-05-25T13:44:42.057Z,510
2019-05-25T13:45:45.374Z,520
2019-05-25T13:46:41.822Z,535
2019-05-25T13:47:41.819Z,530
2019-05-25T13:48:42.067Z,515
2019-05-25T13:49:42.065Z,500
2019-05-25T13:50:41.823Z,495
2019-05-25T13:51:42.070Z,495
2019-05-25T13:52:41.829Z,505
2019-05-25T13:53:42.615Z,500
2019-05-25T13:54:42.074Z,465
2019-05-25T13:55:42.074Z,430
2019-05-25T13:56:42.067Z,400
2019-05-25T13:57:42.077Z,390
2019-05-25T13:58:43.987Z,385
2019-05-25T13:59:42.084Z,375
2019-05-25T14:00:42.085Z,375
2019-05-25T14:01:42.072Z,390
2019-05-25T14:02:42.078Z,390
2019-05-25T14:03:41.894Z,385
2019-05-25T14:04:42.073Z,375
2019-05-25T14:05:42.081Z,385
2019-05-25T14:06:42.095Z,385
2019-05-25T14:07:42.068Z,405
2019-05-25T14:08:41.843Z,420
2019-05-25T14:09:42.067Z,425
2019-05-25T14:10:42.069Z,420
2019-05-25T14:11:42.096Z,405
2019-05-25T14:12:42.073Z,410
2019-05-25T14:13:42.074Z,420
2019-05-25T14:14:42.086Z,450
2019-05-25T14:15:42.067Z,475
2019-05-25T14:16:42.070Z,490
2019-05-25T14:17:41.890Z,480
2019-05-25T14:18:42.075Z,470
2019-05-25T14:19:46.074Z,470
2019-05-25T14:20:42.088Z,475
2019-05-25T14:21:42.075Z,445
2019-05-25T14:22:42.073Z,425
2019-05-25T14:23:42.070Z,415
2019-05-25T14:24:42.076Z,410
2019-05-25T14:25:42.068Z,420
2019-05-25T14:26:42.076Z,440
2019-05-25T14:27:42.078Z,450
2019-05-25T14:28:42.069Z,470
2019-05-25T14:29:42.069Z,480
2019-05-25T14:30:42.067Z,485
2019-05-25T14:31:55.048Z,460
2019-05-25T14:32:41.586Z,470
2019-05-25T14:33:42.077Z,470
2019-05-25T14:34:42.066Z,470
2019-05-25T14:35:42.067Z,465
2019-05-25T14:36:42.076Z,450
2019-05-25T14:37:42.097Z,425
2019-05-25T14:38:42.075Z,425
2019-05-25T14:39:41.820Z,410
2019-05-25T14:40:42.058Z,410
2019-05-25T14:41:42.149Z,430
2019-05-25T14:42:42.075Z,420
2019-05-25T14:43:42.093Z,420
2019-05-25T14:44:42.071Z,430
2019-05-25T14:45:42.061Z,445
2019-05-25T14:46:42.068Z,435
2019-05-25T14:47:42.069Z,415
2019-05-25T14:48:42.066Z,375
2019-05-25T14:49:42.177Z,340
2019-05-25T14:50:42.060Z,325
2019-05-25T14:51:42.073Z,315
2019-05-25T14:52:45.602Z,305
2019-05-25T14:53:42.071Z,310
2019-05-25T14:54:42.066Z,335
2019-05-25T14:55:41.842Z,340
2019-05-25T14:56:42.072Z,345
2019-05-25T14:57:42.083Z,355
2019-05-25T14:58:42.256Z,360
2019-05-25T14:59:42.060Z,375
2019-05-25T15:00:42.065Z,395
2019-05-25T15:01:42.069Z,395
2019-05-25T15:02:41.808Z,390
2019-05-25T15:03:42.063Z,405
2019-05-25T15:04:42.049Z,420
2019-05-25T15:05:42.056Z,425
2019-05-25T15:06:42.068Z,430
2019-05-25T15:07:41.813Z,445
2019-05-25T15:08:42.054Z,435
2019-05-25T15:09:42.053Z,425
2019-05-25T15:10:42.076Z,430
2019-05-25T15:11:42.075Z,420
2019-05-25T15:12:41.826Z,390
2019-05-25T15:13:42.063Z,360
2019-05-25T15:14:42.052Z,350
2019-05-25T15:15:42.041Z,350
2019-05-25T15:16:42.324Z,360
2019-05-25T15:17:47.485Z,365
2019-05-25T15:18:42.039Z,370
2019-05-25T15:19:42.172Z,380
2019-05-25T15:20:42.033Z,385
2019-05-25T15:21:42.439Z,385
2019-05-25T15:22:42.034Z,385
2019-05-25T15:23:42.039Z,390
2019-05-25T15:24:41.784Z,405
2019-05-25T15:25:42.022Z,405
2019-05-25T15:26:42.053Z,380
2019-05-25T15:27:41.556Z,365
2019-05-25T15:28:42.032Z,380
2019-05-25T15:29:41.856Z,400
2019-05-25T15:30:42.028Z,395
2019-05-25T15:31:42.029Z,385
2019-05-25T15:32:42.013Z,390
2019-05-25T15:33:42.095Z,390
2019-05-25T15:34:42.025Z,380
2019-05-25T15:35:42.033Z,385
2019-05-25T15:36:42.014Z,400
2019-05-25T15:37:41.784Z,415
2019-05-25T15:38:42.027Z,410
2019-05-25T15:39:42.013Z,380
2019-05-25T15:40:43.903Z,340
2019-05-25T15:41:42.007Z,355
2019-05-25T15:42:41.766Z,365
2019-05-25T15:43:42.007Z,365
2019-05-25T15:44:42.021Z,355
2019-05-25T15:45:42.013Z,350
2019-05-25T15:46:42.073Z,365
2019-05-25T15:47:41.864Z,365
2019-05-25T15:48:42.008Z,360
2019-05-25T15:49:43.249Z,355
2019-05-25T15:50:41.999Z,350
2019-05-25T15:51:42.012Z,360
2019-05-25T15:52:42.025Z,365
2019-05-25T15:53:41.996Z,370
2019-05-25T15:54:41.999Z,365
2019-05-25T15:55:41.981Z,360
2019-05-25T15:56:41.743Z,365
2019-05-25T15:57:41.748Z,365
2019-05-25T15:58:41.994Z,350
2019-05-25T15:59:42.017Z,350
2019-05-25T16:00:44.548Z,355
2019-05-25T16:01:41.735Z,350
2019-05-25T16:02:45.769Z,325
2019-05-25T16:03:41.976Z,310
2019-05-25T16:04:42.896Z,315
2019-05-25T16:05:41.983Z,325
2019-05-25T16:06:41.967Z,330
2019-05-25T16:07:41.727Z,320
2019-05-25T16:08:41.969Z,305
2019-05-25T16:09:41.972Z,280
2019-05-25T16:10:41.967Z,275
2019-05-25T16:11:41.970Z,275
2019-05-25T16:12:42.017Z,295
2019-05-25T16:13:41.991Z,305
2019-05-25T16:14:41.967Z,295
2019-05-25T16:15:42.010Z,290
2019-05-25T16:16:41.718Z,285
2019-05-25T16:17:41.950Z,295
2019-05-25T16:18:41.984Z,290
2019-05-25T16:19:41.950Z,280
2019-05-25T16:20:41.952Z,275
2019-05-25T16:21:41.947Z,285
2019-05-25T16:22:41.455Z,290
2019-05-25T16:23:41.945Z,300
2019-05-25T16:24:41.955Z,280
2019-05-25T16:25:41.933Z,270
2019-05-25T16:26:54.631Z,255
2019-05-25T16:27:41.685Z,235
2019-05-25T16:28:41.937Z,215
2019-05-25T16:29:41.932Z,195
2019-05-25T16:30:41.956Z,185
2019-05-25T16:31:43.399Z,190
2019-05-25T16:33:16.628Z,215
2019-05-25T16:33:41.930Z,220
2019-05-25T16:34:42.041Z,225
2019-05-25T16:35:41.671Z,225
2019-05-25T16:36:41.912Z,220
2019-05-25T16:37:43.824Z,215
2019-05-25T16:38:41.953Z,220
2019-05-25T16:39:41.906Z,240
2019-05-25T16:40:41.968Z,240
2019-05-25T16:41:41.904Z,245
2019-05-25T16:42:41.660Z,245
2019-05-25T16:43:41.899Z,240
2019-05-25T16:44:41.697Z,230
2019-05-25T16:45:41.900Z,225
2019-05-25T16:46:41.891Z,220
2019-05-25T16:47:41.157Z,215
2019-05-25T16:48:41.654Z,205
2019-05-25T16:49:41.885Z,200
2019-05-25T16:50:41.885Z,200
2019-05-25T16:51:41.887Z,195
2019-05-25T16:52:41.448Z,190
2019-05-25T16:53:41.868Z,185
2019-05-25T16:54:41.868Z,180
2019-05-25T16:55:41.871Z,175
2019-05-25T16:56:41.886Z,170
2019-05-25T16:57:41.876Z,160
2019-05-25T16:58:41.863Z,155
2019-05-25T16:59:41.859Z,145
2019-05-25T17:00:41.932Z,145
2019-05-25T17:01:56.956Z,150
2019-05-25T17:02:41.853Z,150
2019-05-25T17:03:41.854Z,150
2019-05-25T17:04:41.869Z,150
2019-05-25T17:05:41.830Z,145
2019-05-25T17:06:41.833Z,150
2019-05-25T17:07:41.345Z,150
2019-05-25T17:08:41.833Z,150
2019-05-25T17:09:41.830Z,150
2019-05-25T17:10:42.072Z,155
2019-05-25T17:11:41.833Z,160
2019-05-25T17:12:41.569Z,165
2019-05-25T17:13:41.817Z,165
2019-05-25T17:14:41.567Z,165
2019-05-25T17:15:41.809Z,165
2019-05-25T17:16:41.801Z,165
2019-05-25T17:17:41.802Z,165
2019-05-25T17:18:41.801Z,170
2019-05-25T17:19:41.805Z,170
2019-05-25T17:20:41.791Z,170
2019-05-25T17:21:41.804Z,170
2019-05-25T17:22:41.544Z,165
2019-05-25T17:23:41.782Z,165
2019-05-25T17:24:41.772Z,165
2019-05-25T17:25:41.777Z,165
2019-05-25T17:26:41.772Z,170
2019-05-25T17:27:41.768Z,165
2019-05-25T17:28:41.764Z,160
2019-05-25T17:29:41.770Z,160
2019-05-25T17:30:41.750Z,155
2019-05-25T17:31:41.512Z,150
2019-05-25T17:32:41.508Z,150
2019-05-25T17:33:55.366Z,150
2019-05-25T17:34:41.732Z,150
2019-05-25T17:35:41.759Z,150
2019-05-25T17:36:41.732Z,145
2019-05-25T17:37:41.728Z,145
2019-05-25T17:38:41.720Z,140
2019-05-25T17:39:41.725Z,135
2019-05-25T17:40:41.843Z,130
2019-05-25T17:41:41.711Z,130
2019-05-25T17:42:41.492Z,130
2019-05-25T17:43:41.767Z,120
2019-05-25T17:44:41.700Z,115
2019-05-25T17:45:41.707Z,115
2019-05-25T17:46:41.711Z,115
2019-05-25T17:47:41.718Z,115
2019-05-25T17:48:41.724Z,115
2019-05-25T17:49:41.690Z,110
2019-05-25T17:50:41.694Z,105
2019-05-25T17:51:41.675Z,105
2019-05-25T17:52:41.747Z,105
2019-05-25T17:53:41.663Z,100
2019-05-25T17:54:41.672Z,100
2019-05-25T17:55:41.427Z,100
2019-05-25T17:56:41.657Z,100
2019-05-25T17:57:41.418Z,100
2019-05-25T17:58:41.694Z,95
2019-05-25T17:59:41.635Z,90
2019-05-25T18:00:41.639Z,90
2019-05-25T18:01:41.637Z,85
2019-05-25T18:02:41.630Z,85
2019-05-25T18:03:41.647Z,85
2019-05-25T18:04:41.379Z,80
2019-05-25T18:05:41.635Z,80
2019-05-25T18:06:41.625Z,80
2019-05-25T18:07:41.608Z,75
2019-05-25T18:08:41.612Z,75
2019-05-25T18:09:41.637Z,70
2019-05-25T18:10:59.545Z,65
2019-05-25T18:11:41.596Z,60
2019-05-25T18:12:41.723Z,60
2019-05-25T18:13:41.593Z,60
2019-05-25T18:14:41.583Z,55
2019-05-25T18:15:41.339Z,50
2019-05-25T18:16:41.599Z,50
2019-05-25T18:17:41.418Z,45
2019-05-25T18:18:41.311Z,45
2019-05-25T18:19:41.316Z,45
2019-05-25T18:20:41.554Z,40
2019-05-25T18:21:41.544Z,40
2019-05-25T18:22:41.324Z,35
2019-05-25T18:23:41.679Z,35
2019-05-25T18:24:41.536Z,40
2019-05-25T18:25:41.529Z,40
2019-05-25T18:26:41.584Z,40
2019-05-25T18:27:41.283Z,45
2019-05-25T18:28:41.528Z,45
2019-05-25T18:29:41.528Z,45
2019-05-25T18:30:41.516Z,45
2019-05-25T18:31:41.285Z,45